Time;durP1;ratioP1;P1;durP2;ratioP2;P2;SDS_P1;SDS_P2;PMS_P1;PMS_P2;Temp;Humidity;BMP_temperature;BMP_pressure;BME280_temperature;BME280_humidity;BME280_pressure;Samples;Min_cycle;Max_cycle;Signal;HPM_P1;HPM_P2
2023/10/18 00:00:17;;;;;;;5.50;3.70;;;7.80;92.70;;;;;;5037811;28;20477;-61
2023/10/18 00:02:45;;;;;;;5.97;3.10;;;7.80;92.70;;;;;;5049598;28;20478;-62
2023/10/18 00:05:15;;;;;;;6.67;3.20;;;7.80;92.80;;;;;;5056183;28;20470;-60
2023/10/18 00:07:43;;;;;;;5.80;3.13;;;7.80;92.70;;;;;;5050440;28;20506;-62
2023/10/18 00:10:11;;;;;;;3.27;2.80;;;7.80;92.60;;;;;;5044560;28;20503;-62
2023/10/18 00:12:39;;;;;;;5.70;4.03;;;7.70;93.00;;;;;;5036844;28;20486;-61
2023/10/18 00:15:09;;;;;;;6.53;4.00;;;7.70;93.10;;;;;;5056585;28;21058;-60
2023/10/18 00:17:36;;;;;;;5.80;4.30;;;7.70;93.00;;;;;;5051283;28;20579;-60
2023/10/18 00:20:06;;;;;;;6.50;4.00;;;5.70;92.10;;;;;;5053340;28;20475;-60
2023/10/18 00:22:33;;;;;;;4.40;3.60;;;7.80;93.00;;;;;;5057742;28;20465;-60
2023/10/18 00:25:00;;;;;;;6.50;3.73;;;7.80;93.00;;;;;;5066755;28;20590;-60
2023/10/18 00:27:26;;;;;;;7.70;4.03;;;7.80;92.90;;;;;;5070089;28;20484;-62
2023/10/18 00:29:54;;;;;;;6.77;3.73;;;7.90;92.90;;;;;;5077205;28;20484;-62
2023/10/18 00:32:23;;;;;;;6.83;4.07;;;7.90;92.60;;;;;;5054704;28;20571;-61
2023/10/18 00:34:50;;;;;;;6.27;3.97;;;7.90;92.90;;;;;;5058858;28;21032;-61
2023/10/18 00:37:21;;;;;;;5.40;3.50;;;7.90;92.80;;;;;;5068557;28;20507;-60
2023/10/18 00:39:48;;;;;;;9.33;4.00;;;7.80;92.70;;;;;;5071383;28;20540;-62
2023/10/18 00:42:28;;;;;;;4.37;3.00;;;7.80;93.00;;;;;;5053672;28;20472;-62
2023/10/18 00:45:02;;;;;;;8.70;3.97;;;7.80;93.00;;;;;;5071875;28;20838;-62
2023/10/18 00:47:30;;;;;;;10.77;3.90;;;7.80;92.70;;;;;;5062369;28;20483;-60
2023/10/18 00:49:58;;;;;;;10.33;5.53;;;7.80;93.00;;;;;;5038508;28;20524;-61
2023/10/18 00:52:26;;;;;;;8.87;4.47;;;7.80;93.10;;;;;;5050062;28;20480;-62
2023/10/18 00:54:54;;;;;;;5.93;3.47;;;7.80;93.20;;;;;;5050102;28;20509;-61
2023/10/18 00:57:24;;;;;;;7.00;3.80;;;7.90;93.30;;;;;;5056078;28;20487;-67
2023/10/18 00:59:52;;;;;;;8.40;4.33;;;7.90;93.10;;;;;;5053526;28;20504;-66
2023/10/18 01:02:27;;;;;;;6.57;3.13;;;7.90;92.90;;;;;;5052390;28;20553;-65
2023/10/18 01:04:56;;;;;;;4.73;3.70;;;7.90;92.90;;;;;;5073328;28;20888;-67
2023/10/18 01:07:25;;;;;;;6.83;3.93;;;7.90;92.90;;;;;;5067000;28;20504;-67
2023/10/18 01:09:53;;;;;;;7.20;3.90;;;7.80;92.90;;;;;;5062068;28;20569;-68
2023/10/18 01:12:23;;;;;;;5.73;3.73;;;7.70;93.00;;;;;;5066221;28;20489;-65
2023/10/18 01:14:49;;;;;;;5.07;3.30;;;7.70;93.50;;;;;;5066494;28;20489;-65
2023/10/18 01:17:16;;;;;;;5.87;3.67;;;7.70;93.30;;;;;;5051456;28;21239;-67
2023/10/18 01:19:43;;;;;;;3.20;2.87;;;7.70;93.30;;;;;;5051882;28;20475;-67
2023/10/18 01:22:12;;;;;;;4.47;3.37;;;7.70;93.40;;;;;;5079823;28;20718;-67
2023/10/18 01:24:40;;;;;;;4.07;3.53;;;7.70;93.40;;;;;;5056785;28;20593;-67
2023/10/18 01:27:08;;;;;;;9.67;4.57;;;7.60;93.00;;;;;;5055790;28;21049;-67
2023/10/18 01:29:34;;;;;;;3.77;3.23;;;7.70;93.30;;;;;;5070332;28;20482;-68
2023/10/18 01:32:02;;;;;;;7.97;4.47;;;7.60;93.20;;;;;;5049570;28;21069;-67
2023/10/18 01:34:31;;;;;;;3.43;3.10;;;7.60;93.50;;;;;;5059409;28;20544;-66
2023/10/18 01:36:59;;;;;;;6.07;4.47;;;7.60;93.20;;;;;;5064928;28;20481;-65
2023/10/18 01:39:29;;;;;;;5.20;3.33;;;7.60;93.40;;;;;;5048435;28;20548;-66
2023/10/18 01:42:00;;;;;;;7.93;3.40;;;7.60;93.30;;;;;;5083500;28;21042;-66
2023/10/18 01:44:30;;;;;;;6.10;3.70;;;7.60;93.20;;;;;;5058092;28;20479;-68
2023/10/18 01:47:01;;;;;;;6.60;3.60;;;7.60;93.10;;;;;;5057848;28;20490;-67
2023/10/18 01:49:29;;;;;;;7.00;2.87;;;7.60;93.10;;;;;;5051213;28;20533;-67
2023/10/18 01:51:57;;;;;;;7.17;4.43;;;7.60;93.10;;;;;;5076157;28;20522;-65
2023/10/18 01:54:25;;;;;;;5.60;3.67;;;7.60;93.10;;;;;;5060489;28;20823;-65
2023/10/18 01:56:53;;;;;;;6.57;3.80;;;7.60;93.30;;;;;;5065663;28;20489;-67
2023/10/18 01:59:27;;;;;;;5.00;3.27;;;7.50;93.30;;;;;;5058861;28;20565;-67
2023/10/18 02:01:54;;;;;;;7.60;3.00;;;7.50;93.30;;;;;;5051048;28;20483;-66
2023/10/18 02:04:25;;;;;;;5.80;3.60;;;7.50;93.40;;;;;;5077620;28;20485;-66
2023/10/18 02:06:53;;;;;;;6.77;4.27;;;7.50;93.50;;;;;;5053079;28;20479;-67
2023/10/18 02:09:20;;;;;;;4.60;3.50;;;7.40;93.60;;;;;;5056794;28;21172;-67
2023/10/18 02:11:47;;;;;;;4.23;3.40;;;7.40;93.70;;;;;;5051314;28;20496;-67
2023/10/18 02:14:14;;;;;;;3.30;3.00;;;7.40;93.40;;;;;;5056173;28;20578;-64
2023/10/18 02:16:45;;;;;;;4.43;3.60;;;7.40;93.70;;;;;;5057384;28;20694;-66
2023/10/18 02:19:15;;;;;;;8.30;5.23;;;7.40;93.50;;;;;;5051171;28;20862;-67
2023/10/18 02:21:42;;;;;;;9.00;4.23;;;7.50;93.50;;;;;;5066167;28;20493;-67
2023/10/18 02:24:12;;;;;;;6.37;3.23;;;7.40;93.50;;;;;;5055495;28;20503;-67
2023/10/18 02:26:47;;;;;;;7.27;4.23;;;7.40;93.50;;;;;;5058604;28;20534;-67
2023/10/18 02:29:16;;;;;;;7.73;4.17;;;7.40;93.60;;;;;;5067103;28;20552;-66
2023/10/18 02:31:45;;;;;;;6.57;2.80;;;7.40;93.70;;;;;;5052622;28;21065;-66
2023/10/18 02:34:15;;;;;;;4.93;3.97;;;7.30;93.70;;;;;;5047417;28;20478;-66
2023/10/18 02:36:47;;;;;;;9.23;3.90;;;7.40;93.60;;;;;;5056520;28;20567;-66
2023/10/18 02:39:21;;;;;;;5.17;4.00;;;7.30;93.70;;;;;;5057616;28;20483;-65
2023/10/18 02:41:49;;;;;;;6.50;4.00;;;7.30;93.80;;;;;;5059981;28;20921;-66
2023/10/18 02:44:21;;;;;;;4.70;2.77;;;7.30;93.90;;;;;;5050787;28;20884;-64
2023/10/18 02:46:51;;;;;;;11.03;5.57;;;7.30;94.00;;;;;;5086642;28;20490;-68
2023/10/18 02:49:18;;;;;;;5.57;3.90;;;7.30;93.80;;;;;;5057792;28;21225;-64
2023/10/18 02:51:45;;;;;;;5.67;3.43;;;7.40;93.80;;;;;;5058695;28;20479;-66
2023/10/18 02:54:16;;;;;;;7.57;4.43;;;7.40;93.70;;;;;;5067975;28;20601;-67
2023/10/18 02:56:50;;;;;;;5.77;3.57;;;7.40;93.60;;;;;;5067149;28;20473;-67
2023/10/18 02:59:18;;;;;;;4.47;3.30;;;7.40;93.40;;;;;;5048437;28;20492;-67
2023/10/18 03:01:48;;;;;;;6.93;3.20;;;7.40;93.30;;;;;;5071007;28;20487;-65
2023/10/18 03:04:17;;;;;;;7.53;4.40;;;7.40;93.20;;;;;;5058391;28;21069;-65
2023/10/18 03:06:46;;;;;;;7.70;4.40;;;7.30;93.50;;;;;;5051639;28;20511;-67
2023/10/18 03:09:26;;;;;;;4.43;3.67;;;7.20;93.70;;;;;;5055675;28;20511;-68
2023/10/18 03:11:54;;;;;;;9.23;4.67;;;7.20;93.80;;;;;;5071483;28;20469;-68
2023/10/18 03:14:35;;;;;;;7.60;4.73;;;7.10;93.60;;;;;;5063759;28;20502;-65
2023/10/18 03:17:13;;;;;;;4.90;4.03;;;7.10;93.90;;;;;;5060071;28;20903;-60
2023/10/18 03:19:42;;;;;;;7.40;3.67;;;7.10;93.90;;;;;;5065854;28;21171;-61
2023/10/18 03:22:09;;;;;;;6.27;3.50;;;7.10;93.70;;;;;;5057826;28;20848;-60
2023/10/18 03:24:37;;;;;;;6.10;4.50;;;7.10;94.00;;;;;;5057999;28;20613;-60
2023/10/18 03:27:08;;;;;;;4.53;3.50;;;7.10;94.00;;;;;;5057982;28;20479;-61
2023/10/18 03:29:37;;;;;;;6.93;4.00;;;7.10;94.10;;;;;;5058014;28;20480;-60
2023/10/18 03:32:06;;;;;;;4.80;3.70;;;7.00;94.10;;;;;;5054294;28;20486;-61
2023/10/18 03:34:35;;;;;;;6.80;4.40;;;7.00;94.20;;;;;;5058033;28;20997;-61
2023/10/18 03:37:04;;;;;;;8.47;4.57;;;7.00;94.30;;;;;;5069790;28;20563;-62
2023/10/18 03:39:31;;;;;;;8.10;4.90;;;6.90;94.30;;;;;;5057408;28;20487;-61
2023/10/18 03:42:00;;;;;;;7.20;4.53;;;6.90;94.30;;;;;;5056685;28;20505;-60
2023/10/18 03:44:27;;;;;;;5.33;4.40;;;6.90;94.60;;;;;;5052121;28;20485;-62
2023/10/18 03:47:03;;;;;;;4.57;3.37;;;6.90;94.60;;;;;;5054910;28;20467;-62
2023/10/18 03:49:33;;;;;;;3.67;3.23;;;6.90;94.60;;;;;;5058798;28;20477;-60
2023/10/18 03:52:16;;;;;;;7.63;4.10;;;6.90;94.60;;;;;;5064858;28;20724;-61
2023/10/18 03:54:45;;;;;;;10.13;4.77;;;6.90;94.60;;;;;;5054360;28;20478;-60
2023/10/18 03:57:16;;;;;;;8.30;4.80;;;7.00;94.60;;;;;;5072030;28;20469;-61
2023/10/18 03:59:44;;;;;;;7.40;4.33;;;6.90;94.80;;;;;;5076058;28;20875;-61
2023/10/18 04:02:16;;;;;;;6.93;4.23;;;7.00;94.80;;;;;;5066202;28;20532;-61
2023/10/18 04:04:47;;;;;;;8.47;5.17;;;6.90;94.70;;;;;;5053948;28;21068;-60
2023/10/18 04:07:17;;;;;;;8.37;4.70;;;6.90;95.10;;;;;;5084017;28;20486;-60
2023/10/18 04:09:53;;;;;;;6.43;3.83;;;6.90;95.30;;;;;;5076504;28;21077;-61
2023/10/18 04:12:22;;;;;;;7.17;4.57;;;7.00;95.20;;;;;;5055287;28;20489;-62
2023/10/18 04:14:54;;;;;;;6.13;4.30;;;7.10;95.10;;;;;;5078465;28;20499;-61
2023/10/18 04:17:32;;;;;;;5.03;4.10;;;7.10;95.00;;;;;;5080491;28;20569;-65
2023/10/18 04:20:00;;;;;;;8.23;3.83;;;7.10;95.10;;;;;;5073839;28;20937;-67
2023/10/18 04:22:28;;;;;;;12.00;5.07;;;7.10;95.20;;;;;;5086705;28;20565;-66
2023/10/18 04:24:56;;;;;;;7.77;4.67;;;7.20;95.20;;;;;;5055889;28;20532;-65
2023/10/18 04:27:23;;;;;;;4.37;3.37;;;7.20;95.10;;;;;;5059070;28;20741;-61
2023/10/18 04:29:55;;;;;;;6.80;3.73;;;7.30;95.10;;;;;;5060419;28;20581;-60
2023/10/18 04:32:23;;;;;;;8.93;5.30;;;7.40;95.00;;;;;;5061092;28;20470;-60
2023/10/18 04:34:50;;;;;;;5.97;4.20;;;7.50;94.90;;;;;;5060976;28;20569;-61
2023/10/18 04:37:17;;;;;;;8.20;5.20;;;7.50;94.90;;;;;;5057643;28;20561;-62
2023/10/18 04:39:44;;;;;;;4.50;3.70;;;7.40;95.00;;;;;;5056261;28;20467;-62
2023/10/18 04:42:16;;;;;;;9.03;5.27;;;7.50;95.30;;;;;;5058163;28;21172;-61
2023/10/18 04:44:47;;;;;;;6.60;4.43;;;7.50;95.10;;;;;;5061405;28;20477;-61
2023/10/18 04:47:15;;;;;;;7.03;4.07;;;7.50;95.00;;;;;;5071521;28;20578;-62
2023/10/18 04:49:50;;;;;;;8.07;5.60;;;7.60;95.00;;;;;;5056053;28;20478;-60
2023/10/18 04:52:28;;;;;;;13.30;5.03;;;7.60;95.00;;;;;;5061599;28;20589;-60
2023/10/18 04:55:00;;;;;;;10.23;4.60;;;7.60;95.10;;;;;;5053937;28;20477;-61
2023/10/18 04:57:28;;;;;;;15.00;5.33;;;7.60;95.00;;;;;;5049425;28;20490;-61
2023/10/18 04:59:59;;;;;;;12.73;5.37;;;7.60;94.80;;;;;;5066218;28;20475;-61
2023/10/18 05:02:26;;;;;;;10.50;5.87;;;7.70;95.10;;;;;;5055280;28;20483;-61
2023/10/18 05:04:54;;;;;;;7.40;4.33;;;7.70;95.00;;;;;;5083370;28;20479;-60
2023/10/18 05:07:20;;;;;;;11.23;4.90;;;7.80;95.10;;;;;;5056801;28;20513;-61
2023/10/18 05:09:55;;;;;;;8.03;4.90;;;7.80;95.00;;;;;;5039983;28;20951;-62
2023/10/18 05:12:28;;;;;;;10.93;5.20;;;7.90;94.90;;;;;;5040159;28;20336;-62
2023/10/18 05:15:16;;;;;;;7.80;5.20;;;8.00;94.90;;;;;;5070329;28;20531;-60
2023/10/18 05:17:43;;;;;;;7.63;5.10;;;8.00;94.90;;;;;;5059421;28;20558;-60
2023/10/18 05:20:22;;;;;;;11.83;5.87;;;8.00;95.00;;;;;;5058790;28;20828;-60
2023/10/18 05:22:50;;;;;;;7.83;4.90;;;8.00;95.20;;;;;;5060064;28;20475;-60
2023/10/18 05:25:30;;;;;;;11.23;5.43;;;8.00;95.20;;;;;;5063352;28;20485;-61
2023/10/18 05:28:13;;;;;;;8.27;5.70;;;8.00;95.20;;;;;;5071388;28;20932;-61
2023/10/18 05:36:29;;;;;;;9.73;5.13;;;8.00;95.20;;;;;;5064819;28;20498;-60
2023/10/18 05:38:56;;;;;;;15.23;7.30;;;8.10;95.20;;;;;;5071657;28;20857;-66
2023/10/18 05:41:28;;;;;;;8.40;5.27;;;8.10;95.10;;;;;;5057307;28;20542;-65
2023/10/18 05:43:58;;;;;;;18.77;5.73;;;8.10;95.20;;;;;;5054566;28;20529;-66
2023/10/18 05:46:28;;;;;;;11.90;5.30;;;8.10;95.20;;;;;;5056298;28;20554;-67
2023/10/18 05:48:57;;;;;;;11.80;5.67;;;8.20;95.20;;;;;;5056475;28;20477;-66
2023/10/18 05:51:26;;;;;;;12.47;6.50;;;8.20;95.10;;;;;;5054177;28;20965;-66
2023/10/18 05:53:57;;;;;;;8.40;5.50;;;8.30;95.00;;;;;;5058456;28;20569;-64
2023/10/18 05:56:29;;;;;;;6.67;4.37;;;8.30;94.80;;;;;;5058533;28;20478;-65
2023/10/18 05:59:27;;;;;;;8.30;6.50;;;8.20;94.70;;;;;;5056899;28;20852;-66
2023/10/18 06:01:53;;;;;;;10.37;5.77;;;8.20;94.70;;;;;;5073399;28;20567;-66
2023/10/18 06:04:24;;;;;;;11.83;5.80;;;8.20;94.50;;;;;;5067533;28;20497;-66
2023/10/18 06:06:52;;;;;;;7.70;5.30;;;8.20;94.70;;;;;;5057692;28;20478;-64
2023/10/18 06:09:27;;;;;;;9.73;5.33;;;8.20;94.80;;;;;;5055966;28;20467;-67
2023/10/18 06:11:55;;;;;;;12.93;5.57;;;8.10;94.70;;;;;;5052572;28;21107;-67
2023/10/18 06:14:25;;;;;;;11.40;5.90;;;8.10;94.50;;;;;;5052882;28;20514;-65
2023/10/18 06:17:06;;;;;;;6.77;5.83;;;8.20;94.80;;;;;;5062782;28;20486;-66
2023/10/18 06:19:36;;;;;;;9.43;5.83;;;8.10;94.80;;;;;;5055136;28;20479;-65
2023/10/18 06:22:14;;;;;;;11.83;5.60;;;8.10;94.90;;;;;;5057998;28;20490;-66
2023/10/18 06:24:43;;;;;;;8.40;5.53;;;8.10;95.10;;;;;;5055189;28;20607;-66
2023/10/18 06:27:15;;;;;;;16.30;7.87;;;8.10;95.10;;;;;;5056215;28;20507;-67
2023/10/18 06:29:43;;;;;;;9.07;5.60;;;8.10;95.00;;;;;;5055682;28;20490;-65
2023/10/18 06:32:14;;;;;;;13.77;6.90;;;8.10;94.90;;;;;;5056431;28;21013;-65
2023/10/18 06:34:43;;;;;;;15.83;8.53;;;8.10;95.10;;;;;;5052650;28;20490;-66
2023/10/18 06:37:20;;;;;;;17.50;7.77;;;8.10;94.90;;;;;;5056328;28;21962;-66
2023/10/18 06:39:47;;;;;;;13.07;8.50;;;8.10;95.10;;;;;;5055099;28;20486;-66
2023/10/18 06:42:14;;;;;;;10.57;6.23;;;8.20;95.10;;;;;;5051548;28;20561;-66
2023/10/18 06:44:43;;;;;;;10.83;6.33;;;8.30;95.00;;;;;;5059054;28;20474;-66
2023/10/18 06:47:13;;;;;;;9.87;6.27;;;8.30;95.20;;;;;;5057668;28;20475;-60
2023/10/18 06:49:42;;;;;;;8.97;5.27;;;8.40;94.90;;;;;;5057856;28;20481;-60
2023/10/18 06:52:09;;;;;;;15.13;8.20;;;8.40;95.20;;;;;;5058273;28;21017;-60
2023/10/18 06:54:38;;;;;;;17.73;8.20;;;8.40;95.20;;;;;;5058593;28;20487;-61
2023/10/18 06:57:15;;;;;;;11.77;7.07;;;8.40;95.30;;;;;;5059086;28;20558;-61
2023/10/18 06:59:44;;;;;;;11.60;5.90;;;8.40;95.30;;;;;;5051896;28;20668;-61
2023/10/18 07:02:13;;;;;;;10.87;7.10;;;8.50;95.40;;;;;;5057221;28;20502;-61
2023/10/18 07:04:46;;;;;;;12.63;7.13;;;8.50;95.20;;;;;;5052064;28;20515;-60
2023/10/18 07:07:13;;;;;;;11.47;7.60;;;8.50;95.40;;;;;;5051230;28;20463;-61
2023/10/18 07:09:42;;;;;;;12.47;7.40;;;8.50;95.40;;;;;;5056028;28;20478;-61
2023/10/18 07:12:11;;;;;;;11.97;6.17;;;8.60;95.50;;;;;;5057871;28;20573;-61
2023/10/18 07:14:37;;;;;;;12.87;7.87;;;8.70;95.50;;;;;;5057671;28;20487;-61
2023/10/18 07:17:09;;;;;;;13.47;6.80;;;8.80;95.60;;;;;;5047432;28;20471;-60
2023/10/18 07:19:47;;;;;;;12.57;7.20;;;8.90;95.60;;;;;;5067337;28;20477;-60
2023/10/18 07:22:18;;;;;;;24.83;12.47;;;9.20;95.40;;;;;;5059254;28;20528;-61
2023/10/18 07:24:47;;;;;;;13.10;8.07;;;9.20;95.70;;;;;;5058322;28;20474;-60
2023/10/18 07:27:16;;;;;;;15.90;9.80;;;9.70;96.30;;;;;;5061470;28;20912;-62
2023/10/18 07:29:48;;;;;;;25.23;12.47;;;10.40;95.90;;;;;;5055539;28;21298;-62
2023/10/18 07:32:20;;;;;;;19.40;11.50;;;12.00;94.20;;;;;;5052293;28;20479;-62
2023/10/18 07:34:49;;;;;;;22.43;10.90;;;12.10;94.30;;;;;;5044759;28;21011;-61
2023/10/18 07:37:19;;;;;;;15.97;9.40;;;13.50;91.90;;;;;;5051069;28;20573;-62
2023/10/18 07:39:48;;;;;;;16.50;8.53;;;13.80;91.70;;;;;;5051485;28;20595;-62
2023/10/18 07:42:18;;;;;;;11.40;7.50;;;14.40;91.40;;;;;;5064638;28;20478;-61
2023/10/18 07:44:46;;;;;;;18.53;10.33;;;15.00;90.80;;;;;;5046213;28;20502;-61
2023/10/18 07:47:18;;;;;;;20.43;9.60;;;15.30;88.90;;;;;;5049690;28;20482;-65
2023/10/18 07:49:46;;;;;;;17.03;8.57;;;15.60;87.70;;;;;;5046405;28;20590;-66
2023/10/18 07:52:24;;;;;;;17.17;9.30;;;15.90;87.00;;;;;;5056138;28;20707;-65
2023/10/18 07:54:50;;;;;;;15.70;8.07;;;15.70;85.10;;;;;;5072337;28;20479;-65
2023/10/18 07:57:18;;;;;;;16.83;9.70;;;15.60;86.50;;;;;;5056983;28;21003;-65
2023/10/18 07:59:47;;;;;;;14.77;9.33;;;15.90;88.20;;;;;;5045466;28;21008;-65
2023/10/18 08:02:19;;;;;;;10.67;7.50;;;16.10;86.10;;;;;;5080398;28;20528;-64
2023/10/18 08:04:47;;;;;;;10.47;8.40;;;15.80;85.00;;;;;;5060420;28;20585;-65
2023/10/18 08:07:19;;;;;;;13.40;9.57;;;15.50;85.30;;;;;;5075157;28;21038;-65
2023/10/18 08:09:48;;;;;;;17.03;8.53;;;15.20;85.80;;;;;;5055284;28;20937;-65
2023/10/18 08:12:28;;;;;;;20.20;10.23;;;14.90;85.80;;;;;;5046165;28;20486;-64
2023/10/18 08:14:55;;;;;;;19.53;9.67;;;14.50;86.20;;;;;;5048384;28;20681;-65
2023/10/18 08:17:42;;;;;;;12.70;8.30;;;14.10;86.70;;;;;;5081785;28;21290;-65
2023/10/18 08:23:17;;;;;;;13.67;7.80;;;13.50;88.90;;;;;;5047068;28;20856;-65
2023/10/18 08:26:03;;;;;;;14.53;8.17;;;13.20;89.50;;;;;;5049209;28;20494;-65
2023/10/18 08:28:38;;;;;;;18.07;8.47;;;13.10;90.00;;;;;;5055081;28;20502;-65
2023/10/18 08:31:14;;;;;;;13.17;9.30;;;12.90;90.50;;;;;;5041032;28;20783;-66
2023/10/18 08:33:41;;;;;;;14.60;9.50;;;12.90;90.80;;;;;;5052742;28;20988;-67
2023/10/18 08:36:15;;;;;;;10.53;7.10;;;12.90;91.00;;;;;;5059531;28;20978;-67
2023/10/18 08:38:45;;;;;;;13.30;8.40;;;13.00;90.80;;;;;;5066533;28;20505;-67
2023/10/18 08:41:16;;;;;;;13.80;8.10;;;13.00;91.20;;;;;;5046015;28;20862;-66
2023/10/18 08:43:53;;;;;;;9.10;6.30;;;13.00;90.90;;;;;;5069647;28;20498;-65
2023/10/18 08:46:26;;;;;;;14.03;7.90;;;13.00;91.00;;;;;;5048825;28;20480;-66
2023/10/18 08:48:55;;;;;;;13.20;6.70;;;13.00;90.60;;;;;;5069372;28;20515;-66
2023/10/18 08:51:26;;;;;;;13.20;7.73;;;13.10;91.00;;;;;;5055183;28;20482;-66
2023/10/18 08:53:55;;;;;;;12.53;7.80;;;13.20;90.80;;;;;;5054525;28;20880;-66
2023/10/18 08:56:29;;;;;;;15.93;7.80;;;13.30;91.00;;;;;;5053569;28;20470;-67
2023/10/18 08:58:57;;;;;;;11.53;8.27;;;13.50;90.20;;;;;;5045381;28;20475;-66
2023/10/18 09:01:25;;;;;;;14.40;7.07;;;13.50;90.70;;;;;;5083615;28;20480;-66
2023/10/18 09:03:51;;;;;;;10.73;7.30;;;13.60;90.40;;;;;;5062102;28;20644;-65
2023/10/18 09:06:30;;;;;;;13.13;7.63;;;13.70;90.20;;;;;;5055073;28;20477;-66
2023/10/18 09:09:04;;;;;;;12.57;7.87;;;13.60;89.50;;;;;;5051077;28;20228;-66
2023/10/18 09:11:31;;;;;;;12.70;8.10;;;13.70;90.60;;;;;;5041170;28;21161;-66
2023/10/18 09:14:11;;;;;;;9.97;6.40;;;13.70;90.20;;;;;;5055050;28;20563;-66
2023/10/18 09:16:39;;;;;;;13.67;6.77;;;13.80;90.50;;;;;;5046407;28;20793;-68
2023/10/18 09:19:06;;;;;;;22.20;8.23;;;13.70;89.80;;;;;;5054164;28;20467;-66
2023/10/18 09:21:42;;;;;;;15.13;6.97;;;13.70;90.30;;;;;;5052973;28;20506;-67
2023/10/18 09:24:11;;;;;;;6.97;5.20;;;13.80;90.30;;;;;;5049769;28;20489;-67
2023/10/18 09:26:41;;;;;;;9.83;7.40;;;13.80;89.80;;;;;;5056310;28;20548;-66
2023/10/18 09:29:09;;;;;;;11.83;7.60;;;13.90;90.30;;;;;;5068872;28;20588;-67
2023/10/18 09:31:37;;;;;;;10.10;6.23;;;14.00;90.00;;;;;;5054174;28;20486;-67
2023/10/18 09:34:08;;;;;;;9.60;6.60;;;14.10;90.10;;;;;;5048325;28;20469;-66
2023/10/18 09:36:38;;;;;;;14.97;7.30;;;14.10;90.30;;;;;;5053367;28;20552;-67
2023/10/18 09:39:09;;;;;;;11.60;6.90;;;14.20;90.20;;;;;;5042480;28;20816;-67
2023/10/18 09:41:39;;;;;;;10.53;6.83;;;14.30;90.40;;;;;;5053501;28;20488;-67
2023/10/18 09:44:07;;;;;;;11.17;6.77;;;14.20;90.00;;;;;;5034627;28;20560;-67
2023/10/18 09:46:34;;;;;;;9.83;7.37;;;14.20;90.10;;;;;;5055777;28;20485;-66
2023/10/18 09:49:05;;;;;;;10.23;6.20;;;14.30;90.30;;;;;;5044767;28;22623;-67
2023/10/18 09:51:34;;;;;;;10.73;6.40;;;14.20;90.00;;;;;;5070292;28;20477;-67
2023/10/18 09:54:07;;;;;;;12.07;7.33;;;14.30;90.60;;;;;;5042632;28;20501;-67
2023/10/18 09:56:37;;;;;;;11.03;6.50;;;14.40;90.10;;;;;;5064534;28;20497;-67
2023/10/18 09:59:08;;;;;;;18.17;7.20;;;14.40;90.00;;;;;;5041216;28;20487;-67
2023/10/18 10:01:57;;;;;;;10.77;6.37;;;14.40;89.50;;;;;;5035504;28;20467;-66
2023/10/18 10:04:25;;;;;;;7.90;5.33;;;14.40;89.50;;;;;;5057541;28;20521;-67
2023/10/18 10:06:55;;;;;;;17.47;6.03;;;14.40;90.00;;;;;;5048019;28;20931;-67
2023/10/18 10:09:29;;;;;;;9.20;5.70;;;14.30;90.20;;;;;;5049515;28;20487;-66
2023/10/18 10:11:56;;;;;;;9.97;5.60;;;14.40;90.10;;;;;;5047977;28;20604;-67
2023/10/18 10:14:29;;;;;;;9.80;6.17;;;14.40;90.00;;;;;;5077582;28;20819;-67
2023/10/18 10:17:01;;;;;;;18.20;8.10;;;14.30;89.70;;;;;;5063273;28;20572;-64
2023/10/18 10:19:32;;;;;;;11.23;6.37;;;14.40;89.70;;;;;;5059973;28;21364;-64
2023/10/18 10:22:04;;;;;;;9.43;5.70;;;14.40;89.60;;;;;;5048739;28;20581;-64
2023/10/18 10:24:35;;;;;;;6.90;5.47;;;14.40;89.90;;;;;;5069469;28;20477;-64
2023/10/18 10:27:28;;;;;;;10.83;6.33;;;14.50;89.00;;;;;;5040928;28;20479;-64
2023/10/18 10:29:56;;;;;;;10.50;6.23;;;14.50;89.50;;;;;;5064623;28;20479;-67
2023/10/18 10:32:24;;;;;;;6.87;5.97;;;14.50;89.30;;;;;;5050497;28;20482;-66
2023/10/18 10:35:10;;;;;;;10.10;5.63;;;14.50;89.30;;;;;;5042749;28;20562;-67
2023/10/18 10:37:47;;;;;;;6.97;5.27;;;14.60;89.30;;;;;;5042656;28;20465;-64
2023/10/18 10:40:35;;;;;;;13.73;5.17;;;14.70;89.60;;;;;;5059423;28;20557;-65
2023/10/18 10:43:03;;;;;;;8.17;5.83;;;14.80;89.80;;;;;;5053338;28;20483;-65
2023/10/18 10:45:35;;;;;;;6.80;4.50;;;14.90;89.20;;;;;;5054878;28;20636;-64
2023/10/18 10:48:36;;;;;;;10.37;5.53;;;15.00;88.70;;;;;;5070359;28;20486;-64
2023/10/18 10:51:20;;;;;;;9.67;5.03;;;15.00;88.90;;;;;;5057759;28;20482;-64
2023/10/18 10:53:50;;;;;;;12.93;6.70;;;15.00;87.00;;;;;;5023764;28;20483;-65
2023/10/18 10:56:21;;;;;;;11.20;7.20;;;15.10;87.30;;;;;;5048498;28;20478;-65
2023/10/18 10:58:54;;;;;;;9.70;5.80;;;15.30;88.10;;;;;;5046921;28;20859;-64
2023/10/18 11:01:39;;;;;;;6.47;4.93;;;15.30;88.90;;;;;;5042193;28;20484;-63
2023/10/18 11:04:14;;;;;;;10.50;5.37;;;15.50;87.20;;;;;;5040333;28;20470;-64
2023/10/18 11:06:43;;;;;;;11.87;4.63;;;15.50;87.90;;;;;;5049217;28;20474;-64
2023/10/18 11:09:15;;;;;;;10.33;6.90;;;15.60;87.70;;;;;;5050266;28;20534;-64
2023/10/18 11:11:45;;;;;;;5.73;4.03;;;15.70;87.70;;;;;;5038044;28;20566;-64
2023/10/18 11:14:17;;;;;;;8.13;5.50;;;15.70;87.70;;;;;;5050811;28;20474;-64
2023/10/18 11:16:50;;;;;;;10.30;5.53;;;15.80;87.70;;;;;;5054495;28;20873;-64
2023/10/18 11:19:28;;;;;;;9.07;4.83;;;15.90;86.20;;;;;;5049414;28;20474;-64
2023/10/18 11:21:58;;;;;;;9.13;4.97;;;15.90;87.00;;;;;;5049789;28;20565;-65
2023/10/18 11:24:27;;;;;;;7.20;4.63;;;15.90;86.60;;;;;;5041454;28;20842;-64
2023/10/18 11:26:54;;;;;;;8.47;4.67;;;15.90;87.40;;;;;;5047038;28;20485;-65
2023/10/18 11:29:24;;;;;;;6.20;4.30;;;15.90;86.80;;;;;;5047593;28;20653;-65
2023/10/18 11:31:55;;;;;;;8.17;4.83;;;15.80;87.20;;;;;;5043223;28;20548;-64
2023/10/18 11:34:23;;;;;;;7.97;4.77;;;15.70;86.40;;;;;;5041909;28;20726;-64
2023/10/18 11:36:50;;;;;;;5.53;4.83;;;15.70;88.10;;;;;;5052233;28;20506;-65
2023/10/18 11:39:25;;;;;;;5.67;4.30;;;15.70;86.20;;;;;;5052182;28;21309;-65
2023/10/18 11:41:56;;;;;;;9.67;4.47;;;15.70;87.20;;;;;;5053065;28;20540;-65
2023/10/18 11:44:30;;;;;;;5.73;4.33;;;15.70;86.10;;;;;;5050805;28;20544;-64
2023/10/18 11:47:05;;;;;;;5.90;3.90;;;15.70;86.10;;;;;;5050095;28;20593;-64
2023/10/18 11:49:36;;;;;;;7.03;3.67;;;15.60;85.40;;;;;;5050219;28;20567;-67
2023/10/18 11:52:03;;;;;;;6.60;3.80;;;15.60;86.10;;;;;;5066658;28;20473;-67
2023/10/18 11:54:31;;;;;;;9.00;4.07;;;15.50;86.20;;;;;;5054039;28;20470;-67
2023/10/18 11:56:58;;;;;;;11.53;5.00;;;15.50;86.60;;;;;;5053119;28;20479;-64
2023/10/18 11:59:26;;;;;;;6.57;4.53;;;15.40;86.10;;;;;;5052140;28;21068;-65
2023/10/18 12:02:04;;;;;;;5.77;3.60;;;15.40;86.20;;;;;;5052433;28;21056;-64
2023/10/18 12:04:38;;;;;;;9.40;5.30;;;15.40;86.60;;;;;;5050782;28;21031;-64
2023/10/18 12:07:08;;;;;;;5.40;4.33;;;15.30;85.20;;;;;;5055881;28;20472;-63
2023/10/18 12:09:42;;;;;;;4.20;3.00;;;15.30;87.70;;;;;;5068052;28;20850;-64
2023/10/18 12:12:12;;;;;;;5.90;5.10;;;15.50;87.50;;;;;;5058128;28;20470;-64
2023/10/18 12:14:41;;;;;;;8.60;4.10;;;15.50;88.00;;;;;;5043368;28;20479;-64
2023/10/18 12:17:08;;;;;;;6.27;4.27;;;15.50;88.10;;;;;;5043351;28;20970;-64
2023/10/18 12:19:36;;;;;;;6.67;3.70;;;15.50;86.50;;;;;;5045266;28;20537;-65
2023/10/18 12:22:04;;;;;;;3.90;3.40;;;15.50;88.10;;;;;;5055707;28;20479;-64
2023/10/18 12:24:34;;;;;;;6.90;4.10;;;15.40;86.80;;;;;;5056093;28;20493;-64
2023/10/18 12:27:18;;;;;;;7.80;3.70;;;15.40;87.70;;;;;;5056707;28;20475;-64
2023/10/18 12:29:45;;;;;;;4.33;3.93;;;15.40;87.50;;;;;;5051986;28;20502;-64
2023/10/18 12:32:23;;;;;;;6.43;4.50;;;15.50;87.30;;;;;;5055626;28;20570;-64
2023/10/18 12:34:56;;;;;;;10.10;6.13;;;15.50;87.70;;;;;;5056378;28;20481;-65
2023/10/18 12:37:24;;;;;;;12.33;6.20;;;15.50;87.90;;;;;;5047358;28;20578;-65
2023/10/18 12:39:51;;;;;;;7.87;4.57;;;15.50;87.20;;;;;;5056769;28;20483;-64
2023/10/18 12:42:21;;;;;;;5.03;3.83;;;15.50;87.50;;;;;;5055327;28;20510;-64
2023/10/18 12:44:47;;;;;;;6.83;4.87;;;15.40;87.60;;;;;;5054410;28;20479;-65
2023/10/18 12:47:19;;;;;;;5.80;3.40;;;15.30;86.70;;;;;;5054956;28;20474;-65
2023/10/18 12:49:47;;;;;;;7.70;5.07;;;15.10;86.90;;;;;;5044219;28;20470;-65
2023/10/18 12:54:55;;;;;;;5.33;4.83;;;15.10;87.80;;;;;;5043180;28;20470;-64
2023/10/18 12:57:32;;;;;;;5.33;3.93;;;15.10;88.40;;;;;;5043998;28;20482;-67
2023/10/18 13:00:00;;;;;;;7.03;5.00;;;15.10;88.20;;;;;;5084022;28;20477;-67
2023/10/18 13:03:15;;;;;;;8.30;5.43;;;15.00;88.10;;;;;;5056267;28;20499;-67
2023/10/18 13:05:40;;;;;;;5.37;4.53;;;15.00;87.80;;;;;;5055692;28;20490;-68
2023/10/18 13:08:17;;;;;;;7.40;4.60;;;14.90;87.00;;;;;;5056162;28;20478;-68
2023/10/18 13:10:48;;;;;;;8.20;4.90;;;14.80;87.70;;;;;;5054690;28;20555;-68
2023/10/18 13:13:16;;;;;;;5.93;4.30;;;14.80;88.10;;;;;;5054924;28;20485;-68
2023/10/18 13:15:46;;;;;;;7.63;5.03;;;14.80;87.70;;;;;;5053493;28;20863;-67
2023/10/18 13:18:14;;;;;;;7.50;4.33;;;14.80;88.20;;;;;;5067318;28;20469;-65